Ottawa, Ontario

5:39 PM EST on December 04, 2016 (GMT -0500)
Ottawa-Macdonald-Cartier International | | Change Station

Elev 374 ft 45.32 °N, 75.67 °W | Updated 39 minutes ago

Partly Cloudy
Partly Cloudy
27 °F
Feels Like 27 °F
N
2
Wind Variable Wind from SSW

Today
High -- | Low -- °F
--% Chance of Precip.
Yesterday
High -- | Low -- °F
Precip. -- in
Pressure 30.24 in
Visibility 15.0 miles
Clouds Few 3000 ft
Dew Point 18 °F
Humidity 69%
Rainfall 0.00 in
Snow Depth Not available.
7:25 AM 4:20 PM
Waxing Crescent, 26% visible
METAR CYOW 042200Z 20002KT 15SM FEW030 M03/M08 A3022 RMK SC1 SC TR SLP240
Pressure 30.24 in
Visibility 15.0 miles
Clouds Few 3000 ft
Dew Point 18 °F
Humidity 69%
Rainfall 0.00 in
Snow Depth Not available.
7:25 AM 4:20 PM
Waxing Crescent, 26% visible
METAR CYOW 042200Z 20002KT 15SM FEW030 M03/M08 A3022 RMK SC1 SC TR SLP240

10-Day Weather Forecast

Almanac

Astronomy

Dec. 04, 2016 Rise Set
Actual Time
Civil Twilight
Nautical Twilight
Astronomical Twilight
Moon
Length of Visible Light
Length of Day
Tomorrow will be .
, % of the Moon is Illuminated

Today's Extremes

Country Highs Country Lows

Community

WunderPhotos

Upload Photos

1,955,685 photos uploaded!

WunderBlog® & News

Nearby

Air Quality

  Air Quality AQ Index Pollutant
Not available.

Snow Depth

Station Depth Elevation

Earthquake Activity

City Distance Mag. Time & Date
Minimum magnitude displayed is 2.5.

Coastal Water Temperatures

Place Temperature

Stations

Nearby Weather Stations

Station Location Temp. Windchill Dew Point Humidity Wind Precip. Elev Updated Type
                   

Watches & Warnings

There are currently no watches in effect.